Time;durP1;ratioP1;P1;durP2;ratioP2;P2;SDS_P1;SDS_P2;PMS_P1;PMS_P2;Temp;Humidity;BMP_temperature;BMP_pressure;BME280_temperature;BME280_humidity;BME280_pressure;Samples;Min_cycle;Max_cycle;Signal;HPM_P1;HPM_P2
2022/04/06 00:00:46;;;;;;;16.45;8.02;;;8.80;99.90;;;;;;5036904;28;20490;-52
2022/04/06 00:03:12;;;;;;;15.15;8.80;;;8.90;99.90;;;;;;5025097;28;20057;-50
2022/04/06 00:05:38;;;;;;;16.50;8.60;;;8.50;99.90;;;;;;5033082;28;20053;-51
2022/04/06 00:08:05;;;;;;;11.18;6.68;;;8.20;99.90;;;;;;5019699;28;20032;-51
2022/04/06 00:10:31;;;;;;;19.88;7.85;;;8.00;99.90;;;;;;5031755;28;20037;-51
2022/04/06 00:12:58;;;;;;;12.68;8.18;;;7.80;99.90;;;;;;5045804;28;20087;-51
2022/04/06 00:15:24;;;;;;;16.95;7.47;;;7.90;99.90;;;;;;5028079;28;20033;-51
2022/04/06 00:17:49;;;;;;;10.73;7.18;;;8.10;99.90;;;;;;5023482;28;20512;-51
2022/04/06 00:20:16;;;;;;;12.88;8.10;;;8.40;99.90;;;;;;5022878;28;20119;-50
2022/04/06 00:22:42;;;;;;;20.95;11.40;;;8.60;99.90;;;;;;5027821;28;20044;-50
2022/04/06 00:25:09;;;;;;;27.63;13.43;;;8.60;99.90;;;;;;5030833;28;20042;-49
2022/04/06 00:27:35;;;;;;;23.65;12.98;;;8.90;99.90;;;;;;5029801;28;20092;-49
2022/04/06 00:30:01;;;;;;;32.65;15.77;;;9.10;99.90;;;;;;5020333;28;20045;-50
2022/04/06 00:32:27;;;;;;;14.63;9.18;;;9.20;99.90;;;;;;5023173;28;20067;-48
2022/04/06 00:37:38;;;;;;;11.82;7.88;;;9.40;99.90;;;;;;5029284;28;20075;-50
2022/04/06 00:40:08;;;;;;;28.80;13.15;;;9.10;99.90;;;;;;5026410;28;20551;-51
2022/04/06 00:42:34;;;;;;;27.10;12.77;;;8.90;99.90;;;;;;5022182;28;20042;-50
2022/04/06 00:45:01;;;;;;;33.22;14.25;;;9.00;99.90;;;;;;5019707;28;20077;-51
2022/04/06 00:47:26;;;;;;;31.42;15.43;;;8.90;99.90;;;;;;5019452;28;20037;-51
2022/04/06 00:49:52;;;;;;;24.85;12.70;;;9.10;99.90;;;;;;5026235;28;20041;-49
2022/04/06 00:52:20;;;;;;;28.85;16.17;;;9.10;99.90;;;;;;5027669;28;20033;-49
2022/04/06 00:54:47;;;;;;;9.85;6.82;;;8.80;99.90;;;;;;5022560;28;20109;-49
2022/04/06 00:57:13;;;;;;;9.40;5.88;;;8.60;99.90;;;;;;5022501;28;20041;-49
2022/04/06 00:59:41;;;;;;;13.10;6.10;;;8.60;99.90;;;;;;5019433;28;20052;-49
2022/04/06 01:02:08;;;;;;;10.75;5.65;;;8.60;99.90;;;;;;5022114;28;20037;-49
2022/04/06 01:04:33;;;;;;;10.00;6.47;;;8.30;99.90;;;;;;5041940;28;20076;-51
2022/04/06 01:07:00;;;;;;;9.82;6.35;;;8.40;99.90;;;;;;5027464;28;20058;-50
2022/04/06 01:09:27;;;;;;;10.65;6.25;;;8.30;99.90;;;;;;5017473;28;20051;-50
2022/04/06 01:11:53;;;;;;;10.60;7.65;;;8.20;99.90;;;;;;5028162;28;20380;-51
2022/04/06 01:14:20;;;;;;;8.10;5.85;;;8.30;99.90;;;;;;5025372;28;20034;-49
2022/04/06 01:17:03;;;;;;;8.95;5.68;;;8.20;99.90;;;;;;5032223;28;20477;-50
2022/04/06 01:19:34;;;;;;;8.57;5.68;;;8.10;99.90;;;;;;5027845;28;20393;-50
2022/04/06 01:22:00;;;;;;;7.20;5.30;;;8.00;99.90;;;;;;5023432;28;20377;-50
2022/04/06 01:24:27;;;;;;;7.72;5.32;;;7.60;99.90;;;;;;5026496;28;20033;-48
2022/04/06 01:26:54;;;;;;;7.80;5.00;;;7.60;99.90;;;;;;5022099;28;20149;-51
2022/04/06 01:29:19;;;;;;;10.13;6.15;;;7.60;99.90;;;;;;5022956;28;20037;-50
2022/04/06 01:31:46;;;;;;;9.35;6.05;;;7.30;99.90;;;;;;5014513;28;20053;-50
2022/04/06 01:34:12;;;;;;;21.15;14.48;;;7.30;99.90;;;;;;5026833;28;20570;-50
2022/04/06 01:36:37;;;;;;;11.65;6.93;;;7.10;99.90;;;;;;5028412;28;20029;-50
2022/04/06 01:39:03;;;;;;;11.38;7.45;;;6.90;99.90;;;;;;5031280;28;20385;-49
2022/04/06 01:41:33;;;;;;;15.77;8.85;;;7.00;99.90;;;;;;5020521;28;20130;-50
2022/04/06 01:43:59;;;;;;;11.13;6.57;;;7.10;99.90;;;;;;5025567;28;20045;-49
2022/04/06 01:46:25;;;;;;;7.10;5.07;;;7.10;99.90;;;;;;5031614;28;20034;-50
2022/04/06 01:54:22;;;;;;;7.80;5.13;;;7.20;99.90;;;;;;5024448;28;20060;-50
2022/04/06 01:56:48;;;;;;;6.47;4.22;;;7.40;99.90;;;;;;5020395;28;20378;-50
2022/04/06 01:59:14;;;;;;;6.50;4.25;;;7.00;99.90;;;;;;5027812;28;20060;-49
2022/04/06 02:01:40;;;;;;;6.93;4.47;;;7.10;99.90;;;;;;5040851;28;20056;-49
2022/04/06 02:04:15;;;;;;;5.70;4.25;;;7.20;99.90;;;;;;5020551;28;20612;-50
2022/04/06 02:06:42;;;;;;;8.38;4.22;;;7.30;99.90;;;;;;5020073;28;20038;-49
2022/04/06 02:09:08;;;;;;;7.70;4.38;;;7.50;99.90;;;;;;5043840;28;20052;-49
2022/04/06 02:11:35;;;;;;;10.25;5.28;;;7.70;99.90;;;;;;5027521;28;20052;-50
2022/04/06 02:14:03;;;;;;;8.43;5.68;;;7.80;99.90;;;;;;5025703;28;20461;-49
2022/04/06 02:16:28;;;;;;;11.82;7.30;;;8.00;99.90;;;;;;5019076;28;20076;-50
2022/04/06 02:18:54;;;;;;;9.63;6.90;;;8.20;99.90;;;;;;5019065;28;20077;-49
2022/04/06 02:21:20;;;;;;;9.73;6.65;;;8.30;99.90;;;;;;5025206;28;20057;-50
2022/04/06 02:23:46;;;;;;;10.02;6.63;;;8.40;99.90;;;;;;5028504;28;20029;-50
2022/04/06 02:26:11;;;;;;;12.50;11.20;;;8.50;99.90;;;;;;5020741;28;20493;-51
2022/04/06 02:28:37;;;;;;;12.73;11.05;;;8.50;99.90;;;;;;5027113;28;20050;-49
2022/04/06 02:31:03;;;;;;;13.52;10.07;;;8.50;99.90;;;;;;5021321;28;20029;-50
2022/04/06 02:33:29;;;;;;;13.18;10.45;;;8.50;99.90;;;;;;5013809;28;20121;-52
2022/04/06 02:35:54;;;;;;;10.63;8.13;;;8.50;99.90;;;;;;5026958;28;20033;-48
2022/04/06 02:38:20;;;;;;;20.42;14.27;;;8.50;99.90;;;;;;5021407;28;20033;-52
2022/04/06 02:40:46;;;;;;;22.80;14.00;;;8.40;99.90;;;;;;5025000;28;20029;-49
2022/04/06 02:43:12;;;;;;;43.90;26.75;;;8.10;99.90;;;;;;5024715;28;20459;-49
2022/04/06 02:45:38;;;;;;;47.60;28.23;;;8.20;99.90;;;;;;5017250;28;20108;-51
2022/04/06 02:48:05;;;;;;;35.42;21.38;;;8.30;99.90;;;;;;5026542;28;20029;-51
2022/04/06 02:50:31;;;;;;;23.60;15.38;;;8.40;99.90;;;;;;5014705;28;20052;-52
2022/04/06 02:52:57;;;;;;;17.90;10.93;;;8.40;99.90;;;;;;5012692;28;20041;-51
2022/04/06 02:55:23;;;;;;;22.52;11.13;;;8.40;99.90;;;;;;5011946;28;20038;-49
2022/04/06 02:57:49;;;;;;;17.60;9.63;;;8.40;99.90;;;;;;5012951;28;20113;-49
2022/04/06 03:00:15;;;;;;;14.32;7.55;;;8.40;99.90;;;;;;5023660;28;20152;-49
2022/04/06 03:02:42;;;;;;;16.17;7.90;;;8.50;99.90;;;;;;5009528;28;21341;-51
2022/04/06 03:05:08;;;;;;;9.40;7.45;;;8.40;99.90;;;;;;5011744;28;20079;-49
2022/04/06 03:07:33;;;;;;;13.70;8.00;;;8.40;99.90;;;;;;5030009;28;20037;-50
2022/04/06 03:10:01;;;;;;;11.95;7.32;;;8.40;99.90;;;;;;5039889;28;20106;-50
2022/04/06 03:12:27;;;;;;;9.52;7.72;;;8.40;99.90;;;;;;5038401;28;20037;-49
2022/04/06 03:14:53;;;;;;;12.80;8.07;;;8.30;99.90;;;;;;4976658;28;20033;-49
2022/04/06 03:17:19;;;;;;;10.70;7.20;;;8.30;99.90;;;;;;5047000;28;20127;-51
2022/04/06 03:19:44;;;;;;;15.82;8.93;;;8.30;99.90;;;;;;5049155;28;20041;-50
2022/04/06 03:22:17;;;;;;;16.17;7.85;;;8.10;99.90;;;;;;4999044;28;20045;-50
2022/04/06 03:24:49;;;;;;;10.13;7.45;;;8.10;99.90;;;;;;5046158;28;20157;-50
2022/04/06 03:27:14;;;;;;;8.48;6.15;;;8.20;99.90;;;;;;5049600;28;20065;-50
2022/04/06 03:29:41;;;;;;;11.23;6.20;;;8.20;99.90;;;;;;4991761;28;20048;-49
2022/04/06 03:32:07;;;;;;;10.27;6.22;;;8.30;99.90;;;;;;5039833;28;20029;-50
2022/04/06 03:34:33;;;;;;;10.27;6.43;;;8.30;99.90;;;;;;5031365;28;20120;-50
2022/04/06 03:36:59;;;;;;;9.32;5.57;;;8.30;99.90;;;;;;5049220;28;20159;-50
2022/04/06 03:39:25;;;;;;;9.68;6.13;;;8.30;99.90;;;;;;5026663;28;20421;-49
2022/04/06 03:41:50;;;;;;;8.95;5.68;;;8.40;99.90;;;;;;5032798;28;20038;-50
2022/04/06 03:44:17;;;;;;;11.18;6.45;;;8.40;99.90;;;;;;5014132;28;20034;-49
2022/04/06 03:46:43;;;;;;;9.25;6.88;;;8.40;99.90;;;;;;5036181;28;20041;-50
2022/04/06 03:49:09;;;;;;;14.43;6.80;;;8.40;99.90;;;;;;5012295;28;20052;-49
2022/04/06 03:51:35;;;;;;;10.30;7.10;;;8.40;99.90;;;;;;5012746;28;20033;-51
2022/04/06 03:54:01;;;;;;;12.00;6.50;;;8.40;99.90;;;;;;5012070;28;20036;-51
2022/04/06 03:56:27;;;;;;;9.38;5.90;;;7.80;99.90;;;;;;5013360;28;20030;-49
2022/04/06 03:58:53;;;;;;;9.98;5.93;;;7.30;99.90;;;;;;5037426;28;20056;-50
2022/04/06 04:01:19;;;;;;;6.82;5.28;;;7.50;99.90;;;;;;5017406;28;20076;-51
2022/04/06 04:03:44;;;;;;;7.85;5.40;;;7.40;99.90;;;;;;5031031;28;20060;-49
2022/04/06 04:06:10;;;;;;;7.63;4.90;;;7.50;99.90;;;;;;5046164;28;20037;-50
2022/04/06 04:08:36;;;;;;;7.35;6.03;;;7.60;99.90;;;;;;5016273;28;20029;-49
2022/04/06 04:11:01;;;;;;;9.85;6.57;;;7.50;99.90;;;;;;5026972;28;20147;-50
2022/04/06 04:13:27;;;;;;;9.82;7.82;;;7.30;99.90;;;;;;5034933;28;20042;-51
2022/04/06 04:15:53;;;;;;;9.73;7.28;;;7.50;99.90;;;;;;5014574;28;20030;-50
2022/04/06 04:18:19;;;;;;;11.48;8.15;;;7.50;99.90;;;;;;5015498;28;20026;-51
2022/04/06 04:20:45;;;;;;;18.83;10.05;;;7.60;99.90;;;;;;5047138;28;20061;-50
2022/04/06 04:23:14;;;;;;;17.00;11.68;;;7.70;99.90;;;;;;5015384;28;20133;-50
2022/04/06 04:25:40;;;;;;;13.30;8.70;;;7.70;99.90;;;;;;5030496;28;20477;-49
2022/04/06 04:28:06;;;;;;;16.58;13.95;;;7.10;99.90;;;;;;5035872;28;20061;-50
2022/04/06 04:30:33;;;;;;;12.98;9.85;;;7.20;99.90;;;;;;5028414;28;20045;-49
2022/04/06 04:32:58;;;;;;;10.35;7.25;;;6.90;99.90;;;;;;5031992;28;20061;-49
2022/04/06 04:35:24;;;;;;;10.40;6.32;;;6.50;99.90;;;;;;5027878;28;20076;-50
2022/04/06 04:37:50;;;;;;;13.30;6.68;;;6.20;99.90;;;;;;5030445;28;20038;-50
2022/04/06 04:40:16;;;;;;;8.70;6.03;;;6.00;99.90;;;;;;5009333;28;20026;-49
2022/04/06 04:42:43;;;;;;;9.85;6.55;;;6.20;99.90;;;;;;4962697;28;20425;-49
2022/04/06 04:45:10;;;;;;;8.07;5.65;;;6.40;99.90;;;;;;4964335;28;20037;-49
2022/04/06 04:47:37;;;;;;;8.85;6.65;;;6.30;99.90;;;;;;5045548;28;20047;-50
2022/04/06 04:50:04;;;;;;;15.07;7.55;;;6.40;99.90;;;;;;5025419;28;20453;-50
2022/04/06 04:52:30;;;;;;;7.80;5.65;;;6.60;99.90;;;;;;5016789;28;20042;-50
2022/04/06 04:54:55;;;;;;;7.43;5.30;;;6.30;99.90;;;;;;5020847;28;20103;-50
2022/04/06 04:57:21;;;;;;;8.13;5.55;;;6.50;99.90;;;;;;5015444;28;20044;-50
2022/04/06 04:59:47;;;;;;;6.25;4.50;;;6.60;99.90;;;;;;5030719;28;20128;-50
2022/04/06 05:02:13;;;;;;;11.95;6.07;;;6.30;99.90;;;;;;5015195;28;20044;-49
2022/04/06 05:04:38;;;;;;;12.02;8.15;;;5.90;99.90;;;;;;4980552;28;20044;-49
2022/04/06 05:07:04;;;;;;;9.30;6.60;;;5.90;99.90;;;;;;5032610;28;20544;-49
2022/04/06 05:09:30;;;;;;;74.20;55.33;;;5.90;99.90;;;;;;5014950;28;20042;-52
2022/04/06 05:11:56;;;;;;;8.93;6.93;;;6.00;99.90;;;;;;5027591;28;20030;-53
2022/04/06 05:14:22;;;;;;;9.48;6.55;;;6.00;99.90;;;;;;5045962;28;20572;-54
2022/04/06 05:16:48;;;;;;;15.10;7.88;;;6.20;99.90;;;;;;5037150;28;20432;-53
2022/04/06 05:19:13;;;;;;;10.98;7.30;;;6.50;99.90;;;;;;5039352;28;20033;-54
2022/04/06 05:21:39;;;;;;;10.35;8.02;;;6.60;99.90;;;;;;5034856;28;20124;-53
2022/04/06 05:24:05;;;;;;;11.20;7.95;;;6.70;99.90;;;;;;5038952;28;20034;-55
2022/04/06 05:26:31;;;;;;;9.20;6.93;;;6.90;99.90;;;;;;5001509;28;20064;-53
2022/04/06 05:28:57;;;;;;;11.52;6.82;;;7.10;99.90;;;;;;5039013;28;20044;-54
2022/04/06 05:31:23;;;;;;;9.18;5.80;;;7.10;99.90;;;;;;5022929;28;20052;-54
2022/04/06 05:33:48;;;;;;;12.48;6.00;;;7.40;99.90;;;;;;5019091;28;20083;-52
2022/04/06 05:36:14;;;;;;;10.27;6.40;;;7.70;99.90;;;;;;5050880;28;20048;-52
2022/04/06 05:38:40;;;;;;;9.88;7.32;;;8.00;99.90;;;;;;5037815;28;20028;-52
2022/04/06 05:41:07;;;;;;;12.30;8.57;;;8.20;99.90;;;;;;5036527;28;20104;-51
2022/04/06 05:43:32;;;;;;;13.77;8.55;;;8.20;99.90;;;;;;5022224;28;20468;-54
2022/04/06 05:45:58;;;;;;;12.68;8.00;;;;;;;;;;5028485;28;20044;-53
2022/04/06 05:48:24;;;;;;;13.25;9.27;;;9.50;99.90;;;;;;5032921;28;20029;-53
2022/04/06 05:50:50;;;;;;;18.40;11.95;;;8.90;99.90;;;;;;5030662;28;20468;-55
2022/04/06 05:53:16;;;;;;;15.48;11.38;;;8.90;99.90;;;;;;5016111;28;20034;-55
2022/04/06 05:55:43;;;;;;;15.30;9.52;;;8.90;99.90;;;;;;5013997;28;20029;-54
2022/04/06 05:58:09;;;;;;;12.30;8.98;;;9.00;99.90;;;;;;5020447;28;20042;-54
2022/04/06 06:00:36;;;;;;;12.32;9.43;;;9.10;99.90;;;;;;5030701;28;20383;-52
2022/04/06 06:03:02;;;;;;;13.02;9.48;;;9.20;99.90;;;;;;5010071;28;20052;-53
2022/04/06 06:05:28;;;;;;;8.93;6.78;;;9.30;99.90;;;;;;5012842;28;20477;-52
2022/04/06 06:07:53;;;;;;;10.77;6.07;;;9.50;99.90;;;;;;5027428;28;20045;-52
2022/04/06 06:10:21;;;;;;;9.32;5.85;;;9.50;99.90;;;;;;5013470;28;20049;-55
2022/04/06 06:12:46;;;;;;;8.48;5.15;;;9.60;99.90;;;;;;5013982;28;20041;-55
2022/04/06 06:15:12;;;;;;;8.82;5.30;;;9.60;99.90;;;;;;5016317;28;20663;-53
2022/04/06 06:17:39;;;;;;;10.90;5.55;;;9.50;99.90;;;;;;5017598;28;20030;-53
2022/04/06 06:20:05;;;;;;;9.38;6.45;;;;;;;;;;5023266;28;20042;-52
2022/04/06 06:22:32;;;;;;;10.55;5.82;;;;;;;;;;5035366;28;20045;-54
2022/04/06 06:24:57;;;;;;;9.63;5.68;;;9.80;99.90;;;;;;5012884;28;20053;-54
2022/04/06 06:27:24;;;;;;;7.30;5.57;;;10.00;99.90;;;;;;5030094;28;20505;-54
2022/04/06 06:29:50;;;;;;;8.07;5.85;;;;;;;;;;5021412;28;20084;-54
2022/04/06 06:32:17;;;;;;;8.25;6.07;;;;;;;;;;5009503;28;20030;-52
2022/04/06 06:34:43;;;;;;;12.32;6.40;;;10.40;99.90;;;;;;5016315;28;20025;-52
2022/04/06 06:37:10;;;;;;;11.48;6.50;;;11.00;99.90;;;;;;5033488;28;20031;-53
2022/04/06 06:39:36;;;;;;;12.98;7.63;;;11.60;99.90;;;;;;5017802;28;20104;-52
2022/04/06 06:42:04;;;;;;;11.90;6.60;;;12.10;99.90;;;;;;5012958;28;20121;-53
2022/04/06 06:44:30;;;;;;;14.10;6.32;;;12.30;99.90;;;;;;5026817;28;20606;-51
2022/04/06 06:46:55;;;;;;;16.80;6.68;;;12.00;99.90;;;;;;5035142;28;20120;-53
2022/04/06 06:49:21;;;;;;;11.98;7.03;;;12.00;99.90;;;;;;5013662;28;20046;-52
2022/04/06 06:51:47;;;;;;;10.35;6.20;;;12.20;99.90;;;;;;5013550;28;20057;-53
2022/04/06 06:54:12;;;;;;;13.55;7.20;;;12.60;99.90;;;;;;5013130;28;20350;-52
2022/04/06 06:56:38;;;;;;;7.75;5.38;;;12.70;99.90;;;;;;5035660;28;20095;-52
2022/04/06 06:59:04;;;;;;;17.15;9.88;;;12.80;99.90;;;;;;5021225;28;20049;-52
2022/04/06 07:01:30;;;;;;;11.63;6.53;;;13.00;99.90;;;;;;5029168;28;20049;-52
2022/04/06 07:03:55;;;;;;;15.57;6.60;;;13.50;99.90;;;;;;5012742;28;20037;-52
2022/04/06 07:06:21;;;;;;;12.23;6.57;;;13.60;99.90;;;;;;5013432;28;20454;-50
2022/04/06 07:08:47;;;;;;;12.18;6.13;;;13.90;99.90;;;;;;5027537;28;20038;-51
2022/04/06 07:11:13;;;;;;;10.82;7.20;;;14.10;99.90;;;;;;5012776;28;20041;-52
2022/04/06 07:13:38;;;;;;;21.13;11.65;;;14.30;99.90;;;;;;5022315;28;20108;-51
2022/04/06 07:16:07;;;;;;;10.02;7.25;;;14.60;99.90;;;;;;5016637;28;20048;-51
2022/04/06 07:18:34;;;;;;;10.07;6.78;;;;;;;;;;5026244;28;20025;-51
2022/04/06 07:21:01;;;;;;;8.75;5.97;;;;;;;;;;5026933;28;20056;-52
2022/04/06 07:23:27;;;;;;;9.27;5.75;;;;;;;;;;5028731;28;20033;-51
2022/04/06 07:25:52;;;;;;;8.82;6.00;;;15.40;99.90;;;;;;5027953;28;20068;-51
2022/04/06 07:28:19;;;;;;;10.95;6.03;;;;;;;;;;5024380;28;20057;-51
2022/04/06 07:30:45;;;;;;;10.68;6.63;;;;;;;;;;5029261;28;20092;-52
2022/04/06 07:33:13;;;;;;;9.93;6.03;;;16.00;99.90;;;;;;5029036;28;20061;-52
2022/04/06 07:35:39;;;;;;;8.80;6.65;;;16.10;99.90;;;;;;5036309;28;20046;-52
2022/04/06 07:38:06;;;;;;;16.05;7.15;;;16.30;99.90;;;;;;5022905;28;20030;-52
2022/04/06 07:40:31;;;;;;;11.35;6.75;;;16.60;99.90;;;;;;5031708;28;20388;-51
2022/04/06 07:42:57;;;;;;;15.02;9.70;;;16.70;99.80;;;;;;5055462;28;20041;-51
2022/04/06 07:45:24;;;;;;;9.23;5.88;;;;;;;;;;5048467;28;20045;-52
2022/04/06 07:47:51;;;;;;;8.77;5.72;;;;;;;;;;5025917;28;20080;-51
2022/04/06 07:50:18;;;;;;;10.88;5.50;;;;;;;;;;5012320;28;20045;-51
2022/04/06 07:52:44;;;;;;;9.80;5.40;;;17.70;98.60;;;;;;5015139;28;20037;-51
2022/04/06 07:55:11;;;;;;;8.98;5.78;;;17.90;98.30;;;;;;5034192;28;20044;-51
2022/04/06 07:57:37;;;;;;;8.65;5.38;;;18.00;97.50;;;;;;5016571;28;20121;-52
2022/04/06 08:00:09;;;;;;;7.60;5.72;;;18.20;97.00;;;;;;5029149;28;20063;-52
2022/04/06 08:02:35;;;;;;;11.18;6.18;;;18.60;96.60;;;;;;5005871;28;20041;-52
2022/04/06 08:05:02;;;;;;;7.78;5.00;;;18.60;95.20;;;;;;5040793;28;20049;-51
2022/04/06 08:07:28;;;;;;;9.75;5.90;;;19.00;95.30;;;;;;5015850;28;20026;-52
2022/04/06 08:09:54;;;;;;;8.65;5.18;;;19.20;92.70;;;;;;5015890;28;20124;-52
2022/04/06 08:12:19;;;;;;;10.52;5.38;;;19.40;91.90;;;;;;5026884;28;20116;-52
2022/04/06 08:14:47;;;;;;;9.20;5.65;;;19.40;91.50;;;;;;5011889;28;20026;-52
2022/04/06 08:17:12;;;;;;;13.23;6.25;;;19.50;92.30;;;;;;5014316;28;20046;-52
2022/04/06 08:19:38;;;;;;;9.77;5.93;;;19.80;92.30;;;;;;5030212;28;20167;-52
2022/04/06 08:22:04;;;;;;;9.23;6.53;;;20.10;91.90;;;;;;5015170;28;20037;-52
2022/04/06 08:24:31;;;;;;;9.93;5.53;;;20.60;91.70;;;;;;5015600;28;20034;-53
2022/04/06 08:26:57;;;;;;;10.02;6.05;;;20.70;91.20;;;;;;5035219;28;20017;-50
2022/04/06 08:29:23;;;;;;;8.80;4.97;;;21.00;90.60;;;;;;5026655;28;20053;-50
2022/04/06 08:31:49;;;;;;;8.23;4.95;;;;;;;;;;5035696;28;20045;-51
2022/04/06 08:34:18;;;;;;;6.03;4.68;;;21.90;89.00;;;;;;5014112;28;20026;-49
2022/04/06 08:36:45;;;;;;;7.97;5.00;;;22.00;88.70;;;;;;5028498;28;20046;-50
2022/04/06 08:39:11;;;;;;;10.57;4.47;;;21.70;86.00;;;;;;5030164;28;20041;-50
2022/04/06 08:41:39;;;;;;;12.45;4.60;;;22.20;86.60;;;;;;5026355;28;20414;-50
2022/04/06 08:44:05;;;;;;;8.15;4.60;;;22.40;87.00;;;;;;5012105;28;20124;-49
2022/04/06 08:46:34;;;;;;;12.35;4.97;;;;;;;;;;5027379;28;20524;-50
2022/04/06 08:49:00;;;;;;;6.90;4.50;;;;;;;;;;5017227;28;20084;-50
2022/04/06 08:51:28;;;;;;;10.45;5.03;;;22.90;94.50;;;;;;5031784;28;20095;-50
2022/04/06 08:53:54;;;;;;;9.13;5.07;;;23.00;93.60;;;;;;5025578;28;20042;-50
2022/04/06 08:56:24;;;;;;;12.30;5.38;;;;;;;;;;5011924;28;20029;-53
2022/04/06 08:58:50;;;;;;;10.95;5.97;;;23.00;83.00;;;;;;5013208;28;20470;-49
2022/04/06 09:01:16;;;;;;;27.05;6.78;;;;;;;;;;5013910;28;20026;-50
2022/04/06 09:03:42;;;;;;;12.10;4.90;;;23.60;79.50;;;;;;5029044;28;20030;-50
2022/04/06 09:06:12;;;;;;;7.88;4.10;;;23.90;81.10;;;;;;5029322;28;20042;-50
2022/04/06 09:08:39;;;;;;;6.95;3.80;;;;;;;;;;5014696;28;20030;-50
2022/04/06 09:11:10;;;;;;;6.32;3.97;;;;;;;;;;5024319;28;20029;-50
2022/04/06 09:13:36;;;;;;;6.05;4.20;;;;;;;;;;5012836;28;20370;-49
2022/04/06 09:16:04;;;;;;;5.43;3.40;;;24.50;78.90;;;;;;5015726;28;20029;-50
2022/04/06 09:18:43;;;;;;;6.75;3.65;;;24.60;99.20;;;;;;5043837;28;20129;-49
2022/04/06 09:21:10;;;;;;;5.80;3.78;;;24.50;75.00;;;;;;5014345;28;20065;-50
2022/04/06 09:23:36;;;;;;;8.93;3.67;;;;;;;;;;5044570;28;20037;-50
2022/04/06 09:26:06;;;;;;;5.75;3.85;;;;;;;;;;5032566;28;20030;-50
2022/04/06 09:28:32;;;;;;;6.88;3.33;;;24.90;75.70;;;;;;5033542;28;20033;-50
2022/04/06 09:30:59;;;;;;;10.40;3.33;;;25.10;76.60;;;;;;5011208;28;20124;-50
2022/04/06 09:33:29;;;;;;;4.00;2.80;;;25.00;74.80;;;;;;5013266;28;20026;-50
2022/04/06 09:35:55;;;;;;;9.70;4.05;;;25.00;73.70;;;;;;5013712;28;20030;-49
2022/04/06 09:38:23;;;;;;;10.73;3.60;;;;;;;;;;5014802;28;20072;-49
2022/04/06 09:40:59;;;;;;;21.30;5.60;;;25.20;90.00;;;;;;5013838;28;20033;-50
2022/04/06 09:43:29;;;;;;;20.63;5.22;;;24.90;72.30;;;;;;5043398;28;20053;-49
2022/04/06 09:48:56;;;;;;;5.57;3.30;;;25.80;70.80;;;;;;5049776;28;20048;-50
2022/04/06 09:51:23;;;;;;;5.60;3.63;;;25.40;71.50;;;;;;5015777;28;20053;-49
2022/04/06 09:53:51;;;;;;;4.10;2.85;;;25.30;70.60;;;;;;5049870;28;20075;-49
2022/04/06 09:56:18;;;;;;;4.40;2.53;;;25.80;72.00;;;;;;5050778;28;20068;-50
2022/04/06 09:58:45;;;;;;;5.53;2.83;;;26.00;72.00;;;;;;5038531;28;20370;-49
2022/04/06 10:01:15;;;;;;;6.65;3.58;;;26.10;70.10;;;;;;5043728;28;20036;-50
2022/04/06 10:03:49;;;;;;;4.47;3.17;;;25.90;70.10;;;;;;5048838;28;20420;-49
2022/04/06 10:06:14;;;;;;;13.90;4.03;;;25.70;70.20;;;;;;5050148;28;20025;-49
2022/04/06 10:08:42;;;;;;;9.13;3.92;;;25.70;69.80;;;;;;5051422;28;20033;-49
2022/04/06 10:11:08;;;;;;;12.00;4.15;;;25.80;69.40;;;;;;5050479;28;20044;-50
2022/04/06 10:13:34;;;;;;;8.07;3.42;;;25.80;68.10;;;;;;5043971;28;20044;-51
2022/04/06 10:16:01;;;;;;;20.50;6.00;;;25.90;93.50;;;;;;5019556;28;20520;-55
2022/04/06 10:18:28;;;;;;;18.60;5.22;;;25.80;71.10;;;;;;5013246;28;20030;-51
2022/04/06 10:21:12;;;;;;;12.85;4.93;;;25.30;68.00;;;;;;5021834;28;20088;-50
2022/04/06 10:24:05;;;;;;;14.43;4.13;;;25.80;67.60;;;;;;5032993;28;20072;-50
2022/04/06 10:26:49;;;;;;;5.05;2.85;;;25.40;67.80;;;;;;5015328;28;20404;-49
2022/04/06 10:29:15;;;;;;;41.88;8.20;;;;;;;;;;5016095;28;20030;-50
2022/04/06 10:31:41;;;;;;;31.23;5.72;;;;;;;;;;5011638;28;20026;-48
2022/04/06 10:34:42;;;;;;;24.52;3.92;;;27.30;67.90;;;;;;5042752;28;20084;-49
2022/04/06 10:37:11;;;;;;;6.93;3.13;;;27.20;68.30;;;;;;4974014;28;20393;-49
2022/04/06 10:39:58;;;;;;;5.55;3.17;;;27.00;66.40;;;;;;4950397;29;20692;-48
2022/04/06 10:42:31;;;;;;;5.82;2.70;;;26.60;66.40;;;;;;4945382;29;20031;-50
2022/04/06 10:44:57;;;;;;;5.53;3.00;;;26.40;70.80;;;;;;4949105;29;20062;-49
2022/04/06 10:47:29;;;;;;;9.07;2.78;;;26.20;67.30;;;;;;4951095;29;20086;-49
2022/04/06 10:50:16;;;;;;;6.43;3.20;;;26.70;68.70;;;;;;4950556;29;20056;-49
2022/04/06 10:52:45;;;;;;;17.38;3.75;;;;;;;;;;4950320;29;20039;-49
2022/04/06 10:55:20;;;;;;;7.18;1.73;;;26.70;64.80;;;;;;4944928;29;20134;-49
2022/04/06 10:58:01;;;;;;;14.43;2.75;;;26.30;66.20;;;;;;4949934;29;21095;-49
2022/04/06 11:00:28;;;;;;;20.80;3.72;;;25.80;67.40;;;;;;4950272;29;20051;-49
2022/04/06 11:02:54;;;;;;;21.50;3.65;;;25.60;70.50;;;;;;4934904;29;20046;-49
2022/04/06 11:05:49;;;;;;;31.63;5.22;;;26.30;72.80;;;;;;4949110;28;20118;-50
2022/04/06 11:11:43;;;;;;;10.23;2.30;;;;;;;;;;5005036;28;20049;-49
2022/04/06 11:14:11;;;;;;;14.10;3.22;;;;;;;;;;5029361;28;20355;-49
2022/04/06 11:16:48;;;;;;;8.60;2.53;;;;;;;;;;5022740;28;20041;-49
2022/04/06 11:19:15;;;;;;;7.20;2.80;;;;;;;;;;5014810;28;20112;-49
2022/04/06 11:21:52;;;;;;;8.70;2.67;;;26.90;75.90;;;;;;5013675;28;20029;-49
2022/04/06 11:24:20;;;;;;;19.05;4.65;;;26.30;69.60;;;;;;5029251;28;20053;-49
2022/04/06 11:26:46;;;;;;;5.43;3.63;;;26.40;71.10;;;;;;5030058;28;20393;-49
2022/04/06 11:29:12;;;;;;;10.90;3.75;;;26.30;71.90;;;;;;5015119;28;20132;-49
2022/04/06 11:31:56;;;;;;;20.60;3.38;;;;;;;;;;5019709;28;20057;-49
2022/04/06 11:34:29;;;;;;;7.95;2.97;;;;;;;;;;5025891;28;20036;-49
2022/04/06 11:36:58;;;;;;;8.30;3.22;;;;;;;;;;5011852;28;20366;-49
2022/04/06 11:39:24;;;;;;;4.97;2.30;;;;;;;;;;5013819;28;20048;-49
2022/04/06 11:41:51;;;;;;;5.32;2.72;;;;;;;;;;5032650;28;20045;-49
2022/04/06 11:44:23;;;;;;;5.80;2.00;;;;;;;;;;5028851;28;20091;-49
2022/04/06 11:46:49;;;;;;;4.22;1.70;;;;;;;;;;5015786;28;20030;-49
2022/04/06 11:49:20;;;;;;;5.20;1.77;;;;;;;;;;5030533;28;20176;-50
2022/04/06 11:51:47;;;;;;;5.72;2.00;;;;;;;;;;5016122;28;20030;-49
2022/04/06 11:54:13;;;;;;;6.55;2.00;;;;;;;;;;5016755;28;20474;-49
2022/04/06 11:56:40;;;;;;;29.20;5.05;;;27.10;85.80;;;;;;5043362;28;20042;-48
2022/04/06 11:59:09;;;;;;;22.58;3.25;;;26.60;93.90;;;;;;5027585;28;20046;-49
2022/04/06 12:01:42;;;;;;;16.48;2.45;;;25.60;66.10;;;;;;5028031;28;20025;-49
2022/04/06 12:04:37;;;;;;;12.82;1.83;;;;;;;;;;5028540;28;20416;-49
2022/04/06 12:07:04;;;;;;;12.63;3.30;;;;;;;;;;5013212;28;20556;-48
2022/04/06 12:09:33;;;;;;;28.67;4.32;;;;;;;;;;4994183;28;20637;-49
2022/04/06 12:11:59;;;;;;;8.70;2.20;;;;;;;;;;5006562;28;20053;-50
2022/04/06 12:14:25;;;;;;;42.45;6.30;;;;;;;;;;4990327;28;20445;-49
2022/04/06 12:16:51;;;;;;;2.67;1.52;;;26.80;89.10;;;;;;4993658;28;20104;-49
2022/04/06 12:19:18;;;;;;;18.52;3.33;;;26.80;90.50;;;;;;4998489;28;20564;-49
2022/04/06 12:21:48;;;;;;;6.82;1.92;;;26.70;66.00;;;;;;5011346;28;20485;-50
2022/04/06 12:24:17;;;;;;;20.42;2.40;;;;;;;;;;5010179;28;20082;-49
2022/04/06 12:26:51;;;;;;;19.48;4.03;;;;;;;;;;5010169;28;20092;-49
2022/04/06 12:29:17;;;;;;;5.35;1.73;;;27.30;64.90;;;;;;5005743;28;20060;-49
2022/04/06 12:31:45;;;;;;;31.90;4.75;;;26.60;65.70;;;;;;4981462;28;20101;-49
2022/04/06 12:34:31;;;;;;;7.20;2.03;;;;;;;;;;5005406;28;20125;-49
2022/04/06 12:36:57;;;;;;;6.90;1.33;;;27.60;90.60;;;;;;5000243;28;20533;-49
2022/04/06 12:39:23;;;;;;;2.22;1.45;;;26.50;65.90;;;;;;4979738;28;20044;-49
2022/04/06 12:42:01;;;;;;;3.85;1.10;;;26.30;64.60;;;;;;5005265;28;20436;-50
2022/04/06 12:44:32;;;;;;;4.50;1.67;;;26.60;66.40;;;;;;5023568;28;20037;-49
2022/04/06 12:46:58;;;;;;;8.20;3.42;;;;;;;;;;5025177;28;20022;-49
2022/04/06 12:49:36;;;;;;;6.20;3.22;;;27.20;65.30;;;;;;5025017;28;20040;-50
2022/04/06 12:52:22;;;;;;;9.70;2.58;;;27.40;65.90;;;;;;5027171;28;20085;-49
2022/04/06 12:55:01;;;;;;;6.90;2.85;;;;;;;;;;5027053;28;20033;-49
2022/04/06 12:57:27;;;;;;;14.50;3.80;;;27.50;65.40;;;;;;5029012;28;20039;-48
2022/04/06 12:59:59;;;;;;;1.50;1.02;;;26.40;65.50;;;;;;5017084;28;20046;-49
2022/04/06 13:02:33;;;;;;;5.97;1.90;;;26.30;74.00;;;;;;5026950;28;20051;-49
2022/04/06 13:05:00;;;;;;;4.95;2.47;;;26.50;75.30;;;;;;5029288;28;20021;-49
2022/04/06 13:07:26;;;;;;;5.97;2.75;;;;;;;;;;5061091;28;20033;-49
2022/04/06 13:09:53;;;;;;;4.32;2.13;;;;;;;;;;5027205;28;20045;-49
2022/04/06 13:12:20;;;;;;;35.10;3.35;;;;;;;;;;5025527;28;20051;-49
2022/04/06 13:14:46;;;;;;;8.90;2.63;;;26.90;94.90;;;;;;5040015;28;20076;-49
2022/04/06 13:17:12;;;;;;;3.33;1.50;;;26.50;75.60;;;;;;5017140;28;20026;-49
2022/04/06 13:19:38;;;;;;;5.00;3.70;;;;;;;;;;5047608;28;20048;-49